Flugplatz Mönchengladbach

Bericht für EDLN

vom 28.10. um 08:50 UTC

Wind 9 kt aus 230°

Sichtweite 10 km oder mehr

gering bewölkt in 2000 ft

aufgelockert bewölkt in 4000 ft

Temperatur 13.0°C

Taupunkt 10.0°C

Luftfeuchtigkeit 82%

Luftdruck 1008 hPa

EDLN 280850Z 23009KT 190V260 9999 FEW020 SCT040 13/10 Q1008

Prognose für EDLN

vom 28.10. um 08:00 UTC

Zwischen 09:00 UTC und 18:00 UTC

Wind 8 kt aus 230°

Sichtweite 10 km oder mehr

aufgelockert bewölkt in 3000 ft


Zwischen 10:00 UTC und 14:00 UTC zeitweise

Wind 13 kt aus 240°


Zwischen 11:00 UTC und 14:00 UTC zeitweise mit einer Wahrscheinlichkeit von 30%

Wind 15 kt aus 240° in Böen 25 kt

TAF EDLN 280800Z 2809/2818 23008KT 9999 SCT030 TEMPO 2810/2814 24013KT PROB30 TEMPO 2811/2814 24015G25KT
Impressum